Time;durP1;ratioP1;P1;durP2;ratioP2;P2;SDS_P1;SDS_P2;PMS_P1;PMS_P2;Temp;Humidity;BMP_temperature;BMP_pressure;BME280_temperature;BME280_humidity;BME280_pressure;Samples;Min_cycle;Max_cycle;Signal;HPM_P1;HPM_P2
2022/06/23 00:01:17;;;;;;;2.80;1.93;;;;;18.40;100734.00;;;;4975250;28;20297;-74
2022/06/23 00:04:04;;;;;;;2.10;1.90;;;;;18.40;100734.00;;;;4978215;28;20212;-74
2022/06/23 00:06:53;;;;;;;2.53;2.00;;;;;18.40;100737.00;;;;4972186;29;20275;-74
2022/06/23 00:09:41;;;;;;;2.20;1.90;;;;;18.30;100742.00;;;;4973501;28;20249;-74
2022/06/23 00:12:33;;;;;;;3.30;2.17;;;;;18.30;100734.00;;;;4976811;28;20211;-73
2022/06/23 00:15:25;;;;;;;2.13;1.87;;;;;18.30;100734.00;;;;4976003;28;20265;-73
2022/06/23 00:18:18;;;;;;;2.83;2.00;;;;;18.20;100735.00;;;;4960901;29;20212;-71
2022/06/23 00:21:10;;;;;;;2.30;2.03;;;;;18.20;100733.00;;;;4950117;28;21942;-71
2022/06/23 00:24:00;;;;;;;2.90;2.40;;;;;18.20;100731.00;;;;4951136;29;20352;-73
2022/06/23 00:26:46;;;;;;;5.37;2.20;;;;;18.20;100734.00;;;;4948355;29;20209;-72
2022/06/23 00:29:34;;;;;;;2.50;2.10;;;;;18.30;100731.00;;;;4945239;29;20356;-73
2022/06/23 00:32:20;;;;;;;4.60;2.17;;;;;18.50;100728.00;;;;4947549;28;20216;-73
2022/06/23 00:35:07;;;;;;;3.53;2.20;;;;;18.50;100731.00;;;;4945482;28;20736;-73
2022/06/23 00:37:54;;;;;;;2.67;1.97;;;;;18.60;100734.00;;;;4943251;28;20215;-71
2022/06/23 00:40:43;;;;;;;2.83;2.00;;;;;18.60;100721.00;;;;4949134;28;20236;-72
2022/06/23 00:43:31;;;;;;;3.60;2.53;;;;;19.00;100727.00;;;;4948402;28;20205;-71
2022/06/23 00:46:23;;;;;;;4.67;2.27;;;;;18.90;100737.00;;;;4948125;29;20250;-70
2022/06/23 00:49:17;;;;;;;2.73;2.27;;;;;19.00;100722.00;;;;4947076;28;20244;-73
2022/06/23 00:52:15;;;;;;;3.77;1.97;;;;;19.00;100725.00;;;;4948466;29;20224;-72
2022/06/23 00:55:10;;;;;;;3.40;2.37;;;;;18.90;100724.00;;;;4946615;29;20296;-73
2022/06/23 00:58:03;;;;;;;3.00;2.40;;;;;18.90;100727.00;;;;4944445;28;20220;-70
2022/06/23 01:00:52;;;;;;;3.53;2.40;;;;;18.80;100724.00;;;;4948652;28;20916;-72
2022/06/23 01:03:47;;;;;;;3.13;2.40;;;;;18.60;100725.00;;;;4950769;29;20212;-70
2022/06/23 01:06:40;;;;;;;4.30;2.40;;;;;18.70;100724.00;;;;4948151;28;20236;-71
2022/06/23 01:09:34;;;;;;;3.40;2.47;;;;;18.60;100720.00;;;;4947174;28;20596;-72
2022/06/23 01:12:26;;;;;;;2.97;2.10;;;;;18.90;100725.00;;;;4947924;28;20236;-71
2022/06/23 01:15:23;;;;;;;4.37;2.27;;;;;18.70;100727.00;;;;4949059;28;20568;-72
2022/06/23 01:18:18;;;;;;;3.10;2.43;;;;;18.80;100744.00;;;;4950129;29;20212;-71
2022/06/23 01:21:13;;;;;;;2.93;2.47;;;;;18.60;100727.00;;;;4944513;28;20228;-73
2022/06/23 01:24:13;;;;;;;3.17;2.50;;;;;18.50;100727.00;;;;4949733;29;20349;-71
2022/06/23 01:27:09;;;;;;;4.20;2.73;;;;;18.40;100723.00;;;;4947955;28;20212;-71
2022/06/23 01:30:04;;;;;;;5.10;2.63;;;;;18.50;100721.00;;;;4945900;29;20316;-71
2022/06/23 01:32:59;;;;;;;4.73;2.80;;;;;18.40;100723.00;;;;4943534;28;20793;-71
2022/06/23 01:35:52;;;;;;;3.03;2.70;;;;;18.50;100719.00;;;;4948672;28;20209;-72
2022/06/23 01:38:52;;;;;;;5.47;3.00;;;;;18.50;100713.00;;;;4944065;28;20757;-72
2022/06/23 01:41:48;;;;;;;5.63;3.00;;;;;18.40;100715.00;;;;4941023;29;20219;-72
2022/06/23 01:44:42;;;;;;;3.90;2.40;;;;;18.40;100719.00;;;;4948555;28;20207;-72
2022/06/23 01:47:36;;;;;;;2.90;2.60;;;;;18.40;100709.00;;;;4948974;28;20347;-70
2022/06/23 01:50:32;;;;;;;3.33;2.67;;;;;18.30;100714.00;;;;4948991;29;20239;-72
2022/06/23 01:53:26;;;;;;;6.07;2.63;;;;;18.40;100710.00;;;;4949279;28;20212;-72
2022/06/23 01:56:23;;;;;;;9.33;2.90;;;;;18.30;100708.00;;;;4946046;28;20231;-71
2022/06/23 01:59:27;;;;;;;4.63;2.70;;;;;18.30;100704.00;;;;4946702;28;20232;-72
2022/06/23 02:02:21;;;;;;;4.77;2.50;;;;;18.40;100697.00;;;;4947458;28;20227;-72
2022/06/23 02:05:22;;;;;;;6.33;2.87;;;;;18.40;100685.00;;;;4944399;29;20208;-71
2022/06/23 02:08:32;;;;;;;4.73;3.00;;;;;18.20;100690.00;;;;4946582;28;20284;-71
2022/06/23 02:11:25;;;;;;;4.53;3.10;;;;;18.20;100684.00;;;;4946071;28;20701;-71
2022/06/23 02:14:22;;;;;;;4.30;2.97;;;;;18.20;100673.00;;;;4949010;29;20263;-71
2022/06/23 02:17:19;;;;;;;4.73;2.97;;;;;18.20;100677.00;;;;4944831;28;20704;-72
2022/06/23 02:20:26;;;;;;;5.70;3.30;;;;;18.20;100676.00;;;;4947145;28;20224;-72
2022/06/23 02:23:19;;;;;;;4.00;3.47;;;;;18.10;100670.00;;;;4946468;29;20236;-72
2022/06/23 02:26:14;;;;;;;4.83;3.17;;;;;18.30;100676.00;;;;4948622;28;20648;-73
2022/06/23 02:29:06;;;;;;;4.23;2.90;;;;;18.20;100681.00;;;;4942775;29;20580;-72
2022/06/23 02:31:56;;;;;;;4.93;3.13;;;;;18.10;100671.00;;;;4945772;28;20666;-70
2022/06/23 02:34:46;;;;;;;3.87;2.90;;;;;18.20;100669.00;;;;4945206;28;20236;-72
2022/06/23 02:37:58;;;;;;;4.00;3.10;;;;;18.10;100674.00;;;;4947221;28;20217;-71
2022/06/23 02:40:48;;;;;;;3.37;3.00;;;;;18.00;100676.00;;;;4940510;29;20223;-71
2022/06/23 02:43:39;;;;;;;4.27;3.50;;;;;18.10;100671.00;;;;4948579;29;20215;-70
2022/06/23 02:46:54;;;;;;;4.53;3.30;;;;;18.00;100676.00;;;;4946638;28;20681;-71
2022/06/23 02:50:01;;;;;;;6.03;3.50;;;;;17.90;100678.00;;;;4946511;28;20260;-73
2022/06/23 02:53:06;;;;;;;6.57;3.67;;;;;18.10;100689.00;;;;4946831;29;20851;-71
2022/06/23 02:56:20;;;;;;;5.73;3.50;;;;;17.90;100673.00;;;;4941316;28;20220;-71
2022/06/23 02:59:11;;;;;;;4.40;3.50;;;;;18.00;100677.00;;;;4945991;29;20219;-71
2022/06/23 03:02:04;;;;;;;5.13;3.47;;;;;17.80;100683.00;;;;4943238;29;20299;-72
2022/06/23 03:04:56;;;;;;;4.37;3.40;;;;;17.90;100685.00;;;;4945673;28;20775;-73
2022/06/23 03:07:47;;;;;;;5.13;3.77;;;;;17.80;100679.00;;;;4941635;29;20201;-72
2022/06/23 03:10:41;;;;;;;6.33;3.60;;;;;17.80;100689.00;;;;4946625;29;20315;-73
2022/06/23 03:13:35;;;;;;;4.93;3.90;;;;;17.60;100693.00;;;;4945269;28;20208;-69
2022/06/23 03:16:27;;;;;;;7.60;3.80;;;;;17.70;100696.00;;;;4944278;28;20212;-71
2022/06/23 03:19:18;;;;;;;6.30;3.60;;;;;17.50;100688.00;;;;4947301;28;20725;-71
2022/06/23 03:22:08;;;;;;;5.67;3.87;;;;;17.50;100702.00;;;;4951348;28;20244;-73
2022/06/23 03:25:05;;;;;;;6.57;3.73;;;;;17.30;100699.00;;;;4946707;28;20744;-71
2022/06/23 03:27:58;;;;;;;7.47;3.73;;;;;17.30;100702.00;;;;4944944;28;20340;-73
2022/06/23 03:30:50;;;;;;;9.27;3.53;;;;;17.20;100714.00;;;;4943651;28;20251;-72
2022/06/23 03:33:42;;;;;;;6.93;3.97;;;;;17.30;100713.00;;;;4946765;28;20268;-74
2022/06/23 03:36:35;;;;;;;4.93;3.73;;;;;17.40;100698.00;;;;4950943;28;20212;-72
2022/06/23 03:42:36;;;;;;;8.53;3.87;;;;;17.20;100698.00;;;;4950440;28;20227;-72
2022/06/23 03:45:31;;;;;;;5.30;3.67;;;;;17.30;100690.00;;;;4950342;28;20343;-72
2022/06/23 03:48:22;;;;;;;7.00;3.80;;;;;17.30;100688.00;;;;4951224;29;20221;-71
2022/06/23 03:51:16;;;;;;;5.07;3.50;;;;;17.40;100684.00;;;;4946477;29;20810;-72
2022/06/23 03:54:06;;;;;;;4.77;3.47;;;;;17.60;100693.00;;;;4944422;28;20255;-72
2022/06/23 03:56:56;;;;;;;7.90;4.10;;;;;17.50;100686.00;;;;4951049;29;20212;-72
2022/06/23 03:59:52;;;;;;;5.40;3.83;;;;;17.50;100680.00;;;;4950552;28;20236;-73
2022/06/23 04:02:43;;;;;;;8.53;4.87;;;;;17.40;100692.00;;;;4949336;28;20976;-71
2022/06/23 04:05:50;;;;;;;6.07;3.93;;;;;17.40;100696.00;;;;4951028;28;20260;-71
2022/06/23 04:08:48;;;;;;;5.73;3.87;;;;;17.50;100692.00;;;;4949545;28;20839;-72
2022/06/23 04:11:48;;;;;;;5.40;3.90;;;;;17.50;100689.00;;;;4949646;28;20288;-71
2022/06/23 04:14:50;;;;;;;4.83;3.63;;;;;17.50;100686.00;;;;4948663;28;20216;-71
2022/06/23 04:17:41;;;;;;;4.47;3.30;;;;;17.50;100682.00;;;;4949175;29;20344;-70
2022/06/23 04:20:35;;;;;;;6.73;4.03;;;;;17.50;100681.00;;;;4947356;29;20236;-71
2022/06/23 04:23:25;;;;;;;8.33;4.20;;;;;17.50;100684.00;;;;4949083;28;20686;-72
2022/06/23 04:26:18;;;;;;;5.90;3.73;;;;;17.70;100684.00;;;;4951348;29;20240;-70
2022/06/23 04:29:10;;;;;;;7.00;4.00;;;;;17.70;100685.00;;;;4944778;28;20223;-70
2022/06/23 04:32:02;;;;;;;10.67;4.40;;;;;17.60;100684.00;;;;4947135;28;20220;-71
2022/06/23 04:34:53;;;;;;;11.00;4.30;;;;;17.80;100679.00;;;;4945099;29;20256;-71
2022/06/23 04:37:46;;;;;;;7.10;4.07;;;;;17.70;100687.00;;;;4949676;28;20208;-71
2022/06/23 04:40:35;;;;;;;5.07;3.47;;;;;17.80;100685.00;;;;4949271;28;20228;-70
2022/06/23 04:43:30;;;;;;;5.87;4.00;;;;;17.80;100677.00;;;;4941535;29;20236;-73
2022/06/23 04:46:21;;;;;;;11.37;3.83;;;;;17.90;100683.00;;;;4950745;28;20211;-71
2022/06/23 04:49:17;;;;;;;5.17;3.97;;;;;18.00;100692.00;;;;4948482;28;20224;-71
2022/06/23 04:52:13;;;;;;;9.40;4.17;;;;;18.10;100691.00;;;;4945186;28;20220;-72
2022/06/23 04:55:07;;;;;;;8.67;4.07;;;;;18.00;100675.00;;;;4942359;28;20212;-71
2022/06/23 04:57:57;;;;;;;7.07;4.20;;;;;18.10;100684.00;;;;4947623;29;20223;-71
2022/06/23 05:00:48;;;;;;;7.30;4.20;;;;;18.00;100679.00;;;;4947211;28;20235;-70
2022/06/23 05:03:38;;;;;;;4.83;3.70;;;;;18.30;100687.00;;;;4948058;28;20232;-71
2022/06/23 05:06:36;;;;;;;7.63;4.10;;;;;18.20;100695.00;;;;4947113;29;20208;-72
2022/06/23 05:09:28;;;;;;;7.93;4.17;;;;;18.30;100694.00;;;;4947924;28;20259;-72
2022/06/23 05:12:22;;;;;;;7.57;4.00;;;;;18.30;100686.00;;;;4944289;28;20208;-72
2022/06/23 05:15:16;;;;;;;8.90;4.30;;;;;18.40;100695.00;;;;4945865;29;20216;-71
2022/06/23 05:18:24;;;;;;;5.93;4.10;;;;;18.40;100685.00;;;;4946854;28;20208;-71
2022/06/23 05:21:17;;;;;;;6.00;4.07;;;;;18.40;100698.00;;;;4944219;28;20641;-71
2022/06/23 05:24:07;;;;;;;5.63;3.70;;;;;18.40;100697.00;;;;4948634;28;20279;-71
2022/06/23 05:26:57;;;;;;;9.10;4.37;;;;;18.40;100696.00;;;;4942646;28;20572;-72
2022/06/23 05:29:49;;;;;;;4.97;3.87;;;;;18.50;100695.00;;;;4948316;28;20915;-72
2022/06/23 05:32:42;;;;;;;8.07;4.03;;;;;18.50;100692.00;;;;4948153;28;20213;-74
2022/06/23 05:35:35;;;;;;;5.80;4.23;;;;;18.60;100688.00;;;;4949285;28;20212;-72
2022/06/23 05:38:31;;;;;;;4.93;4.10;;;;;18.70;100686.00;;;;4941173;28;20726;-71
2022/06/23 05:41:22;;;;;;;5.47;3.73;;;;;18.80;100690.00;;;;4943296;28;20209;-71
2022/06/23 05:44:16;;;;;;;7.77;4.20;;;;;18.90;100677.00;;;;4944748;29;20236;-73
2022/06/23 05:47:03;;;;;;;5.00;3.93;;;;;19.00;100696.00;;;;4949702;29;20216;-71
2022/06/23 05:49:54;;;;;;;8.03;4.40;;;;;19.20;100694.00;;;;4948529;28;20239;-72
2022/06/23 05:52:49;;;;;;;4.57;3.63;;;;;19.20;100689.00;;;;4947443;28;20731;-71
2022/06/23 05:55:42;;;;;;;8.47;3.90;;;;;19.20;100695.00;;;;4947629;28;20212;-72
2022/06/23 05:58:37;;;;;;;8.07;3.80;;;;;19.40;100702.00;;;;4945749;29;20212;-71
2022/06/23 06:01:30;;;;;;;9.47;4.00;;;;;19.30;100703.00;;;;4947648;28;20208;-72
2022/06/23 06:04:20;;;;;;;5.60;3.73;;;;;19.30;100709.00;;;;4941934;28;20232;-73
2022/06/23 06:07:07;;;;;;;8.17;3.73;;;;;19.40;100706.00;;;;4945416;28;20769;-73
2022/06/23 06:09:55;;;;;;;8.37;3.70;;;;;19.40;100709.00;;;;4944408;28;20360;-72
2022/06/23 06:12:44;;;;;;;4.70;3.80;;;;;19.50;100700.00;;;;4942916;28;20300;-72
2022/06/23 06:15:33;;;;;;;6.17;3.50;;;;;19.50;100694.00;;;;4945032;29;20674;-73
2022/06/23 06:18:28;;;;;;;5.37;3.93;;;;;19.60;100697.00;;;;4946607;28;20580;-72
2022/06/23 06:21:18;;;;;;;4.30;3.30;;;;;19.80;100690.00;;;;4948041;28;20368;-72
2022/06/23 06:24:17;;;;;;;5.57;3.13;;;;;19.90;100691.00;;;;4942654;28;20243;-72
2022/06/23 06:27:12;;;;;;;7.13;3.90;;;;;19.90;100689.00;;;;4944573;29;20272;-72
2022/06/23 06:29:59;;;;;;;6.53;3.73;;;;;20.00;100686.00;;;;4944709;28;20350;-72
2022/06/23 06:32:46;;;;;;;6.13;4.27;;;;;20.00;100686.00;;;;4948696;28;20701;-72
2022/06/23 06:35:38;;;;;;;5.43;3.83;;;;;20.20;100684.00;;;;4948748;28;20236;-71
2022/06/23 06:38:25;;;;;;;7.57;4.50;;;;;20.20;100682.00;;;;4946810;28;20220;-74
2022/06/23 06:41:12;;;;;;;6.33;3.40;;;;;20.40;100692.00;;;;4941168;28;20369;-71
2022/06/23 06:44:02;;;;;;;5.00;3.40;;;;;20.40;100688.00;;;;4948739;28;20599;-74
2022/06/23 06:46:48;;;;;;;4.93;3.57;;;;;20.50;100693.00;;;;4947476;28;20232;-71
2022/06/23 06:49:35;;;;;;;5.07;3.17;;;;;20.60;100691.00;;;;4947462;28;20615;-72
2022/06/23 06:52:21;;;;;;;4.73;3.40;;;;;20.90;100680.00;;;;4948194;28;20267;-70
2022/06/23 06:55:14;;;;;;;5.30;3.10;;;;;20.90;100684.00;;;;4942225;28;20289;-70
2022/06/23 06:58:08;;;;;;;5.57;3.13;;;;;21.00;100700.00;;;;4948329;28;20228;-73
2022/06/23 07:01:00;;;;;;;3.90;3.27;;;;;21.20;100689.00;;;;4946776;28;20602;-71
2022/06/23 07:03:48;;;;;;;4.70;2.93;;;;;21.20;100685.00;;;;4948807;28;20610;-72
2022/06/23 07:06:41;;;;;;;5.50;2.60;;;;;21.40;100683.00;;;;4948263;28;20291;-72
2022/06/23 07:09:33;;;;;;;3.27;2.90;;;;;21.50;100694.00;;;;4948564;28;20236;-72
2022/06/23 07:12:27;;;;;;;5.47;3.03;;;;;21.60;100695.00;;;;4943971;28;20726;-74
2022/06/23 07:15:21;;;;;;;4.47;2.97;;;;;21.70;100692.00;;;;4943728;28;20213;-71
2022/06/23 07:18:15;;;;;;;3.17;2.63;;;;;21.80;100690.00;;;;4944028;28;20216;-71
2022/06/23 07:21:07;;;;;;;3.20;2.60;;;;;21.80;100689.00;;;;4941850;29;20735;-70
2022/06/23 07:23:57;;;;;;;3.10;2.50;;;;;22.00;100690.00;;;;4947246;28;20284;-71
2022/06/23 07:26:48;;;;;;;52.80;29.17;;;;;22.00;100691.00;;;;4947355;28;20226;-73
2022/06/23 07:29:41;;;;;;;8.67;4.30;;;;;22.20;100695.00;;;;4947739;29;20237;-72
2022/06/23 07:32:38;;;;;;;3.20;2.90;;;;;22.30;100691.00;;;;4945009;29;20347;-73
2022/06/23 07:35:33;;;;;;;4.10;2.87;;;;;22.40;100682.00;;;;4947178;29;20400;-73
2022/06/23 07:38:27;;;;;;;3.73;2.67;;;;;22.50;100692.00;;;;4943255;28;20220;-73
2022/06/23 07:41:17;;;;;;;4.03;3.03;;;;;22.70;100687.00;;;;4936441;29;20348;-74
2022/06/23 07:44:06;;;;;;;7.23;2.77;;;;;22.80;100702.00;;;;4941462;28;20269;-75
2022/06/23 07:46:53;;;;;;;8.00;2.90;;;;;22.90;100706.00;;;;4948085;29;20233;-73
2022/06/23 07:49:44;;;;;;;5.60;2.87;;;;;23.10;100698.00;;;;4945705;28;20602;-73
2022/06/23 07:52:31;;;;;;;4.83;3.10;;;;;23.30;100687.00;;;;4947862;29;20219;-72
2022/06/23 07:55:22;;;;;;;7.33;2.90;;;;;23.50;100690.00;;;;4944819;28;20277;-74
2022/06/23 07:58:31;;;;;;;3.77;2.73;;;;;23.60;100690.00;;;;4942723;29;20228;-72
2022/06/23 08:01:19;;;;;;;3.93;2.67;;;;;23.90;100693.00;;;;4947174;28;20226;-70
2022/06/23 08:04:13;;;;;;;3.17;2.73;;;;;24.10;100680.00;;;;4943818;28;20400;-72
2022/06/23 08:07:03;;;;;;;5.83;3.00;;;;;24.20;100683.00;;;;4942785;28;20212;-72
2022/06/23 08:09:54;;;;;;;4.37;2.97;;;;;24.40;100677.00;;;;4950083;28;20235;-72
2022/06/23 08:12:56;;;;;;;4.23;2.60;;;;;24.50;100686.00;;;;4949955;28;20211;-69
2022/06/23 08:18:55;;;;;;;4.23;3.30;;;;;25.00;100680.00;;;;4949561;28;20707;-69
2022/06/23 08:21:47;;;;;;;3.10;2.60;;;;;25.10;100670.00;;;;4949982;28;20208;-72
2022/06/23 08:24:36;;;;;;;3.83;2.60;;;;;25.20;100680.00;;;;4951035;29;20228;-72
2022/06/23 08:27:28;;;;;;;7.73;3.20;;;;;25.50;100679.00;;;;4946468;29;20313;-75
2022/06/23 08:30:17;;;;;;;5.20;3.40;;;;;25.50;100677.00;;;;4948796;28;20693;-72
2022/06/23 08:33:05;;;;;;;3.50;3.07;;;;;25.80;100671.00;;;;4944514;29;20921;-72
2022/06/23 08:35:55;;;;;;;3.77;2.87;;;;;25.90;100675.00;;;;4949386;29;20729;-72
2022/06/23 08:38:45;;;;;;;4.00;2.60;;;;;25.80;100674.00;;;;4950192;28;20228;-73
2022/06/23 08:41:42;;;;;;;4.13;2.90;;;;;26.00;100669.00;;;;4949725;28;20356;-72
2022/06/23 08:44:57;;;;;;;5.37;3.17;;;;;26.40;100669.00;;;;4948047;28;20517;-74
2022/06/23 08:47:49;;;;;;;5.77;3.20;;;;;26.50;100668.00;;;;4946472;28;20926;-74
2022/06/23 08:50:42;;;;;;;7.23;3.10;;;;;26.60;100663.00;;;;4949370;28;20737;-72
2022/06/23 08:53:39;;;;;;;4.50;2.83;;;;;26.80;100654.00;;;;4946607;29;20364;-73
2022/06/23 08:56:30;;;;;;;5.07;3.00;;;;;26.80;100665.00;;;;4947186;28;20215;-73
2022/06/23 08:59:23;;;;;;;6.37;3.30;;;;;27.10;100672.00;;;;4945583;28;20826;-73
2022/06/23 09:02:15;;;;;;;5.95;3.42;;;;;27.40;100672.00;;;;4950956;29;20575;-73
2022/06/23 09:05:25;;;;;;;6.77;3.33;;;;;27.50;100666.00;;;;4946538;28;20771;-74
2022/06/23 09:08:18;;;;;;;5.00;3.33;;;;;27.40;100662.00;;;;4948370;28;20215;-73
2022/06/23 09:11:44;;;;;;;4.78;3.15;;;;;27.90;100666.00;;;;4945162;28;20220;-73
2022/06/23 09:14:50;;;;;;;3.58;3.20;;;;;28.10;100658.00;;;;4946463;29;20329;-72
2022/06/23 09:18:04;;;;;;;5.90;3.63;;;;;28.30;100662.00;;;;4945751;28;20216;-73
2022/06/23 09:21:05;;;;;;;5.50;3.15;;;;;28.30;100658.00;;;;4926415;29;20311;-71
2022/06/23 09:24:46;;;;;;;5.35;3.50;;;;;28.30;100657.00;;;;4943201;29;20209;-70
2022/06/23 09:27:53;;;;;;;5.32;3.33;;;;;28.70;100659.00;;;;4945135;28;20303;-72
2022/06/23 09:30:46;;;;;;;7.22;3.83;;;;;28.80;100654.00;;;;4949720;28;20737;-73
2022/06/23 09:33:48;;;;;;;4.43;3.47;;;;;28.80;100657.00;;;;4949978;28;20341;-70
2022/06/23 09:36:59;;;;;;;6.53;3.65;;;;;28.80;100654.00;;;;4945565;29;20239;-72
2022/06/23 09:40:22;;;;;;;9.05;3.83;;;;;29.00;100655.00;;;;4946892;28;20239;-68
2022/06/23 09:43:38;;;;;;;6.25;3.60;;;;;29.00;100649.00;;;;4942669;29;20224;-72
2022/06/23 09:46:59;;;;;;;5.57;3.30;;;;;29.10;100641.00;;;;4948670;28;20263;-70
2022/06/23 09:49:58;;;;;;;4.13;3.53;;;;;29.40;100643.00;;;;4948821;28;20251;-73
2022/06/23 09:53:20;;;;;;;5.25;3.38;;;;;29.60;100644.00;;;;4946883;28;20228;-68
2022/06/23 09:56:28;;;;;;;3.55;3.25;;;;;29.90;100647.00;;;;4945701;28;20216;-71
2022/06/23 09:59:39;;;;;;;4.53;3.22;;;;;30.00;100641.00;;;;4946643;29;20841;-72
2022/06/23 10:02:46;;;;;;;12.45;4.95;;;;;29.90;100638.00;;;;4944859;29;20395;-73
2022/06/23 10:06:00;;;;;;;5.32;3.50;;;;;29.80;100642.00;;;;4945164;28;20315;-69
2022/06/23 10:08:57;;;;;;;3.50;3.20;;;;;29.80;100632.00;;;;4944889;28;20223;-70
2022/06/23 10:12:14;;;;;;;4.03;3.60;;;;;30.10;100626.00;;;;4948138;28;20802;-68
2022/06/23 10:15:16;;;;;;;6.35;3.50;;;;;30.10;100634.00;;;;4947543;29;20311;-67
2022/06/23 10:18:21;;;;;;;13.20;3.50;;;;;30.20;100626.00;;;;4947915;28;20216;-70
2022/06/23 10:21:19;;;;;;;4.57;3.50;;;;;30.60;100630.00;;;;4946993;28;20267;-69
2022/06/23 10:24:30;;;;;;;5.78;3.40;;;;;30.80;100619.00;;;;4948182;28;20217;-70
2022/06/23 10:27:38;;;;;;;4.97;3.60;;;;;30.80;100628.00;;;;4941616;29;20271;-70
2022/06/23 10:30:32;;;;;;;7.32;3.67;;;;;31.10;100620.00;;;;4942642;29;20235;-71
2022/06/23 10:33:38;;;;;;;5.78;3.97;;;;;31.40;100616.00;;;;4945239;29;20344;-70
2022/06/23 10:36:44;;;;;;;6.28;3.92;;;;;31.40;100612.00;;;;4947418;28;20211;-71
2022/06/23 10:39:49;;;;;;;4.15;3.72;;;;;31.70;100615.00;;;;4944070;29;20295;-70
2022/06/23 10:42:57;;;;;;;5.00;3.90;;;;;31.80;100621.00;;;;4945295;28;20235;-71
2022/06/23 10:45:50;;;;;;;7.65;3.97;;;;;31.10;100613.00;;;;4946847;28;20232;-69
2022/06/23 10:48:55;;;;;;;5.15;3.55;;;;;30.70;100601.00;;;;4943981;28;20212;-71
2022/06/23 10:52:13;;;;;;;5.20;3.80;;;;;31.10;100598.00;;;;4948156;29;20208;-71
2022/06/23 10:55:28;;;;;;;4.60;3.60;;;;;31.40;100589.00;;;;4921518;28;20211;-71
2022/06/23 10:58:39;;;;;;;4.63;3.40;;;;;31.60;100591.00;;;;4941309;29;20336;-70
2022/06/23 11:01:45;;;;;;;3.72;3.42;;;;;31.70;100592.00;;;;4946869;28;20216;-70
2022/06/23 11:05:09;;;;;;;3.83;3.40;;;;;31.90;100595.00;;;;4947790;28;20267;-69
2022/06/23 11:08:11;;;;;;;5.68;3.15;;;;;32.00;100592.00;;;;4947152;28;20700;-73
2022/06/23 11:11:11;;;;;;;3.60;3.28;;;;;32.00;100583.00;;;;4947701;28;20335;-70
2022/06/23 11:14:04;;;;;;;3.55;3.25;;;;;32.10;100575.00;;;;4945892;28;20256;-72
2022/06/23 11:16:58;;;;;;;8.32;3.42;;;;;32.40;100579.00;;;;4948199;29;20216;-70
2022/06/23 11:19:58;;;;;;;5.57;3.10;;;;;32.50;100577.00;;;;4946568;28;20235;-69
2022/06/23 11:22:51;;;;;;;6.43;3.08;;;;;32.70;100569.00;;;;4947434;28;20213;-71
2022/06/23 11:25:54;;;;;;;3.22;2.78;;;;;32.80;100572.00;;;;4944183;29;20231;-68
2022/06/23 11:28:58;;;;;;;5.22;3.42;;;;;33.00;100563.00;;;;4944584;28;20216;-69
2022/06/23 11:31:56;;;;;;;3.20;2.72;;;;;33.40;100581.00;;;;4948136;29;20748;-69
2022/06/23 11:35:04;;;;;;;4.45;3.13;;;;;33.30;100569.00;;;;4944454;28;20279;-69
2022/06/23 11:38:09;;;;;;;3.50;3.20;;;;;33.20;100567.00;;;;4945289;28;20794;-70
2022/06/23 11:41:11;;;;;;;6.50;3.67;;;;;33.50;100561.00;;;;4946398;28;20716;-69
2022/06/23 11:44:12;;;;;;;3.67;3.20;;;;;33.80;100565.00;;;;4951142;28;20838;-69
2022/06/23 11:47:03;;;;;;;4.55;3.53;;;;;33.70;100539.00;;;;4949738;28;20302;-70
2022/06/23 11:50:02;;;;;;;4.05;2.83;;;;;33.80;100559.00;;;;4951211;29;20618;-70
2022/06/23 11:53:06;;;;;;;4.20;3.60;;;;;33.80;100561.00;;;;4949953;28;20353;-70
2022/06/23 11:55:55;;;;;;;3.72;3.42;;;;;33.60;100557.00;;;;4950414;28;20313;-69
2022/06/23 11:58:58;;;;;;;3.63;3.33;;;;;33.70;100550.00;;;;4951326;29;20216;-69
2022/06/23 12:01:45;;;;;;;4.65;3.38;;;;;33.90;100543.00;;;;4929294;29;20786;-67
2022/06/23 12:04:51;;;;;;;3.28;2.83;;;;;33.90;100543.00;;;;4950174;28;20235;-69
2022/06/23 12:07:52;;;;;;;3.78;3.38;;;;;33.90;100551.00;;;;4946270;29;20876;-68
2022/06/23 12:10:40;;;;;;;6.78;3.20;;;;;34.10;100547.00;;;;4946620;28;20310;-69
2022/06/23 12:13:28;;;;;;;3.60;3.03;;;;;34.20;100543.00;;;;4951332;29;20200;-70
2022/06/23 12:16:17;;;;;;;4.43;3.90;;;;;34.20;100557.00;;;;4947362;29;20704;-70
2022/06/23 12:19:07;;;;;;;3.75;3.10;;;;;34.30;100550.00;;;;4949619;28;20325;-70
2022/06/23 12:21:59;;;;;;;5.53;3.25;;;;;34.20;100544.00;;;;4949532;29;20224;-69
2022/06/23 12:24:54;;;;;;;3.83;3.42;;;;;34.50;100541.00;;;;4950889;29;20292;-69
2022/06/23 12:27:44;;;;;;;3.15;2.90;;;;;34.80;100548.00;;;;4950662;28;20236;-67
2022/06/23 12:30:35;;;;;;;3.50;3.20;;;;;34.80;100535.00;;;;4945866;28;20232;-68
2022/06/23 12:33:31;;;;;;;4.85;3.50;;;;;34.50;100530.00;;;;4946424;28;20216;-70
2022/06/23 12:36:25;;;;;;;5.00;3.40;;;;;34.60;100535.00;;;;4951530;29;20216;-69
2022/06/23 12:39:18;;;;;;;4.45;3.50;;;;;34.70;100533.00;;;;4949952;28;20200;-71
2022/06/23 12:42:11;;;;;;;3.67;3.35;;;;;35.10;100528.00;;;;4950230;29;20208;-69
2022/06/23 12:45:13;;;;;;;4.05;3.22;;;;;35.10;100523.00;;;;4950544;28;20215;-70
2022/06/23 12:48:16;;;;;;;3.83;3.53;;;;;35.30;100529.00;;;;4948443;29;20309;-69
2022/06/23 12:51:12;;;;;;;5.35;3.20;;;;;35.20;100529.00;;;;4948916;28;20227;-68
2022/06/23 12:54:17;;;;;;;5.28;3.60;;;;;35.10;100521.00;;;;4948994;28;20291;-70
2022/06/23 12:57:22;;;;;;;5.03;3.50;;;;;35.20;100517.00;;;;4948790;28;20224;-70
2022/06/23 13:00:12;;;;;;;4.05;3.63;;;;;35.20;100514.00;;;;4949598;29;20343;-70
2022/06/23 13:03:12;;;;;;;3.78;3.45;;;;;35.10;100508.00;;;;4949116;28;20217;-71
2022/06/23 13:06:20;;;;;;;4.05;3.65;;;;;34.80;100510.00;;;;4949403;28;20273;-70
2022/06/23 13:09:36;;;;;;;4.65;3.45;;;;;34.20;100502.00;;;;4950066;28;20328;-68
2022/06/23 13:13:01;;;;;;;3.55;3.25;;;;;34.30;100504.00;;;;4945103;28;20685;-69
2022/06/23 13:15:56;;;;;;;4.70;3.78;;;;;34.90;100496.00;;;;4947034;29;20219;-69
2022/06/23 13:18:46;;;;;;;3.90;3.50;;;;;35.10;100501.00;;;;4945375;28;20212;-67
2022/06/23 13:21:37;;;;;;;5.50;3.53;;;;;35.10;100495.00;;;;4949164;28;20212;-69
2022/06/23 13:24:24;;;;;;;4.00;3.60;;;;;35.30;100478.00;;;;4949750;28;20726;-68
2022/06/23 13:27:16;;;;;;;5.88;3.42;;;;;35.40;100481.00;;;;4948844;29;20810;-70
2022/06/23 13:30:09;;;;;;;4.05;3.53;;;;;35.60;100488.00;;;;4949005;28;20228;-70
2022/06/23 13:33:09;;;;;;;3.50;3.20;;;;;35.90;100472.00;;;;4946705;28;20211;-70
2022/06/23 13:36:02;;;;;;;4.15;3.30;;;;;36.10;100472.00;;;;4948055;28;20212;-71
2022/06/23 13:38:57;;;;;;;3.65;3.35;;;;;36.10;100472.00;;;;4948395;28;20283;-69
2022/06/23 13:41:50;;;;;;;5.10;3.30;;;;;36.20;100479.00;;;;4944886;29;20209;-70
2022/06/23 13:44:43;;;;;;;5.28;3.50;;;;;36.40;100483.00;;;;4947100;28;20817;-70
2022/06/23 13:47:35;;;;;;;5.70;3.42;;;;;36.40;100470.00;;;;4943852;29;20237;-70
2022/06/23 13:50:27;;;;;;;4.22;3.33;;;;;36.40;100470.00;;;;4942796;29;20717;-70
2022/06/23 13:53:19;;;;;;;3.63;3.30;;;;;36.70;100471.00;;;;4949836;28;20623;-67
2022/06/23 13:56:14;;;;;;;4.93;3.20;;;;;37.10;100474.00;;;;4948321;28;20218;-69
2022/06/23 13:59:05;;;;;;;3.30;3.00;;;;;37.30;100468.00;;;;4945985;28;20583;-71
2022/06/23 14:01:57;;;;;;;4.68;3.20;;;;;37.30;100463.00;;;;4946559;28;20217;-68
2022/06/23 14:04:48;;;;;;;3.67;3.38;;;;;37.40;100462.00;;;;4947603;28;20208;-70
2022/06/23 14:07:41;;;;;;;7.18;3.47;;;;;37.60;100470.00;;;;4943165;28;20761;-71
2022/06/23 14:10:37;;;;;;;4.50;3.78;;;;;38.20;100472.00;;;;4967082;28;20228;-71
2022/06/23 14:13:35;;;;;;;3.70;3.40;;;;;37.90;100467.00;;;;4970468;29;20217;-71
2022/06/23 14:16:26;;;;;;;4.78;3.83;;;;;38.00;100459.00;;;;4969176;28;20241;-70
2022/06/23 14:19:18;;;;;;;6.75;4.00;;;;;38.70;100455.00;;;;4971082;28;20204;-72
2022/06/23 14:22:14;;;;;;;4.32;3.92;;;;;39.20;100446.00;;;;4958631;29;20229;-74
2022/06/23 14:25:11;;;;;;;6.10;4.07;;;;;40.70;100456.00;;;;4963401;28;20232;-70
2022/06/23 14:28:05;;;;;;;5.15;3.70;;;;;41.70;100458.00;;;;4971776;29;20212;-72
2022/06/23 14:30:57;;;;;;;6.68;3.88;;;;;41.90;100449.00;;;;4956119;28;20220;-69
2022/06/23 14:33:46;;;;;;;4.38;3.97;;;;;39.20;100444.00;;;;4948863;28;20204;-70
2022/06/23 14:36:38;;;;;;;4.32;3.92;;;;;38.00;100438.00;;;;4942886;28;20206;-69